Time;durP1;ratioP1;P1;durP2;ratioP2;P2;SDS_P1;SDS_P2;PMS_P1;PMS_P2;Temp;Humidity;BMP_temperature;BMP_pressure;BME280_temperature;BME280_humidity;BME280_pressure;Samples;Min_cycle;Max_cycle;Signal;HPM_P1;HPM_P2
2021/10/26 00:00:40;;;;;;;7.18;5.25;;;11.00;99.90;;;;;;5070336;28;20244;-78
2021/10/26 00:03:07;;;;;;;8.60;6.47;;;11.00;99.90;;;;;;5070001;28;20202;-79
2021/10/26 00:05:34;;;;;;;7.70;5.97;;;11.00;99.90;;;;;;5070277;28;20226;-77
2021/10/26 00:08:02;;;;;;;7.50;5.53;;;11.00;99.90;;;;;;5069082;28;20655;-79
2021/10/26 00:10:29;;;;;;;7.80;5.73;;;11.10;99.90;;;;;;5070024;28;20594;-76
2021/10/26 00:12:56;;;;;;;9.03;5.33;;;11.10;99.90;;;;;;5069910;28;20202;-77
2021/10/26 00:15:23;;;;;;;9.73;5.18;;;11.20;99.90;;;;;;5070507;28;20214;-76
2021/10/26 00:17:50;;;;;;;7.13;4.73;;;11.20;99.90;;;;;;5070242;28;20206;-76
2021/10/26 00:20:17;;;;;;;7.90;5.50;;;11.20;99.90;;;;;;5070399;28;20213;-76
2021/10/26 00:22:44;;;;;;;6.43;5.23;;;11.20;99.90;;;;;;5070844;28;20217;-76
2021/10/26 00:25:12;;;;;;;5.43;4.88;;;11.20;99.90;;;;;;5069710;28;20225;-76
2021/10/26 00:27:39;;;;;;;8.20;4.50;;;11.30;99.90;;;;;;5070298;28;20627;-76
2021/10/26 00:30:08;;;;;;;6.80;4.38;;;11.30;99.90;;;;;;5069859;28;20234;-78
2021/10/26 00:32:35;;;;;;;7.53;5.67;;;11.30;99.90;;;;;;5070058;28;20734;-75
2021/10/26 00:35:02;;;;;;;7.27;4.97;;;11.40;99.90;;;;;;5069942;28;20263;-78
2021/10/26 00:37:29;;;;;;;11.53;5.57;;;11.40;99.90;;;;;;5070084;28;20206;-77
2021/10/26 00:39:56;;;;;;;6.17;4.43;;;11.30;99.90;;;;;;5069584;28;20198;-76
2021/10/26 00:42:24;;;;;;;7.80;4.87;;;11.30;99.90;;;;;;5069666;28;20202;-75
2021/10/26 00:44:51;;;;;;;7.37;4.63;;;11.30;99.90;;;;;;5069914;28;20698;-75
2021/10/26 00:47:18;;;;;;;8.53;4.90;;;11.40;99.90;;;;;;5070376;28;20210;-76
2021/10/26 00:49:45;;;;;;;6.63;5.13;;;11.40;99.90;;;;;;5073970;28;20207;-75
2021/10/26 00:52:13;;;;;;;14.03;5.37;;;11.30;99.90;;;;;;5073170;28;20267;-77
2021/10/26 00:54:40;;;;;;;7.70;4.97;;;11.30;99.90;;;;;;5073927;28;20289;-77
2021/10/26 00:57:07;;;;;;;7.70;5.57;;;11.30;99.90;;;;;;5073379;28;20202;-80
2021/10/26 00:59:35;;;;;;;7.00;5.70;;;11.30;99.90;;;;;;5073617;28;20206;-75
2021/10/26 01:02:02;;;;;;;5.67;4.47;;;11.10;99.90;;;;;;5073524;28;20214;-78
2021/10/26 01:04:30;;;;;;;6.33;4.47;;;11.10;99.90;;;;;;5073220;28;20248;-78
2021/10/26 01:06:57;;;;;;;6.87;4.27;;;11.10;99.90;;;;;;5073435;28;20233;-78
2021/10/26 01:09:24;;;;;;;9.67;5.07;;;11.00;99.90;;;;;;5073362;28;20206;-78
2021/10/26 01:11:51;;;;;;;6.60;4.40;;;11.00;99.90;;;;;;5073784;28;20210;-78
2021/10/26 01:14:18;;;;;;;6.53;3.63;;;11.00;99.90;;;;;;5073728;28;20734;-78
2021/10/26 01:16:47;;;;;;;8.60;5.00;;;11.00;99.90;;;;;;5073558;28;20621;-77
2021/10/26 01:19:14;;;;;;;7.80;5.97;;;11.00;99.90;;;;;;5072940;28;20263;-77
2021/10/26 01:21:42;;;;;;;6.90;5.00;;;10.90;99.90;;;;;;5073240;28;20202;-78
2021/10/26 01:24:09;;;;;;;6.20;4.43;;;10.90;99.90;;;;;;5072614;28;20267;-77
2021/10/26 01:26:36;;;;;;;7.63;4.70;;;10.80;99.90;;;;;;5073250;28;20645;-77
2021/10/26 01:29:04;;;;;;;6.20;4.20;;;10.80;99.90;;;;;;5072954;28;20206;-77
2021/10/26 01:31:31;;;;;;;7.10;4.40;;;10.80;99.90;;;;;;5072964;28;20206;-76
2021/10/26 01:33:58;;;;;;;7.80;4.43;;;10.60;99.90;;;;;;5073044;28;20206;-77
2021/10/26 01:36:25;;;;;;;6.30;4.67;;;10.70;99.90;;;;;;5073396;28;20248;-76
2021/10/26 01:38:53;;;;;;;7.87;4.60;;;10.70;99.90;;;;;;5072318;28;20709;-74
2021/10/26 01:41:21;;;;;;;11.30;4.77;;;10.60;99.90;;;;;;5073364;28;20202;-74
2021/10/26 01:43:53;;;;;;;7.33;4.07;;;10.60;99.90;;;;;;5073187;28;20245;-77
2021/10/26 01:46:20;;;;;;;6.27;4.37;;;10.60;99.90;;;;;;5073002;28;20225;-74
2021/10/26 01:48:47;;;;;;;6.97;4.00;;;10.70;99.90;;;;;;5073103;28;20326;-74
2021/10/26 01:51:14;;;;;;;7.33;4.63;;;10.80;99.90;;;;;;5072649;28;20271;-74
2021/10/26 01:53:41;;;;;;;8.90;5.17;;;10.80;99.90;;;;;;5072541;28;20206;-74
2021/10/26 01:56:09;;;;;;;8.03;4.97;;;10.90;99.90;;;;;;5072337;28;20662;-74
2021/10/26 01:58:36;;;;;;;7.80;4.80;;;11.00;99.90;;;;;;5072293;28;20293;-78
2021/10/26 02:01:03;;;;;;;7.47;5.00;;;11.00;99.90;;;;;;5071476;28;20214;-74
2021/10/26 02:03:30;;;;;;;5.03;3.93;;;10.90;99.90;;;;;;5072821;28;20202;-79
2021/10/26 02:05:58;;;;;;;6.40;3.90;;;10.90;99.90;;;;;;5071931;28;20279;-75
2021/10/26 02:08:25;;;;;;;4.80;3.60;;;10.80;99.90;;;;;;5072538;28;20206;-74
2021/10/26 02:10:52;;;;;;;5.17;3.50;;;10.80;99.90;;;;;;5072308;28;20283;-75
2021/10/26 02:13:21;;;;;;;7.00;3.73;;;10.80;99.90;;;;;;5072412;28;20260;-74
2021/10/26 02:15:48;;;;;;;7.20;3.63;;;10.80;99.90;;;;;;5072376;28;20291;-75
2021/10/26 02:18:15;;;;;;;6.57;4.03;;;10.90;99.90;;;;;;5071890;28;20572;-75
2021/10/26 02:20:42;;;;;;;6.00;3.43;;;10.80;99.90;;;;;;5072389;28;20202;-74
2021/10/26 02:23:09;;;;;;;7.33;4.13;;;10.80;99.90;;;;;;5071607;28;20637;-79
2021/10/26 02:25:36;;;;;;;6.10;4.47;;;10.90;99.90;;;;;;5072090;28;20226;-75
2021/10/26 02:28:03;;;;;;;4.47;3.50;;;10.90;99.90;;;;;;5071720;28;20268;-77
2021/10/26 02:30:31;;;;;;;6.27;4.20;;;11.00;99.90;;;;;;5072027;28;20206;-75
2021/10/26 02:32:58;;;;;;;6.50;4.70;;;11.00;99.90;;;;;;5071843;28;20256;-78
2021/10/26 02:35:25;;;;;;;7.53;4.60;;;11.10;99.90;;;;;;5072008;28;20260;-79
2021/10/26 02:37:52;;;;;;;8.03;4.20;;;11.20;99.90;;;;;;5071355;28;20291;-75
2021/10/26 02:40:19;;;;;;;9.17;4.73;;;11.30;99.90;;;;;;5071362;28;20747;-76
2021/10/26 02:42:47;;;;;;;8.70;4.37;;;11.30;99.90;;;;;;5072110;28;20255;-80
2021/10/26 02:45:14;;;;;;;6.67;4.83;;;11.30;99.90;;;;;;5071292;28;20216;-75
2021/10/26 02:47:42;;;;;;;7.93;5.07;;;11.40;99.90;;;;;;5071841;28;20229;-74
2021/10/26 02:50:10;;;;;;;7.30;5.00;;;11.30;99.90;;;;;;5071354;28;21154;-78
2021/10/26 02:52:38;;;;;;;7.57;4.07;;;11.30;99.90;;;;;;5071439;28;20297;-76
2021/10/26 02:55:06;;;;;;;5.53;4.57;;;11.30;99.90;;;;;;5071490;28;20206;-78
2021/10/26 02:57:34;;;;;;;11.97;4.33;;;11.30;99.90;;;;;;5071391;28;20260;-76
2021/10/26 03:00:00;;;;;;;7.10;4.80;;;11.40;99.90;;;;;;5071340;28;20218;-78
2021/10/26 03:02:27;;;;;;;8.00;4.80;;;11.30;99.90;;;;;;5071384;28;20252;-77
2021/10/26 03:04:57;;;;;;;6.83;4.80;;;11.30;99.90;;;;;;5071028;28;20259;-79
2021/10/26 03:07:24;;;;;;;6.10;3.67;;;11.30;99.90;;;;;;5070633;28;20743;-79
2021/10/26 03:09:51;;;;;;;6.80;3.50;;;11.30;99.90;;;;;;5071564;28;20260;-77
2021/10/26 03:12:18;;;;;;;5.63;3.70;;;11.30;99.90;;;;;;5071144;28;20259;-78
2021/10/26 03:14:45;;;;;;;5.00;3.33;;;11.20;99.90;;;;;;5071687;28;20279;-77
2021/10/26 03:17:12;;;;;;;6.63;3.37;;;11.20;99.90;;;;;;5070643;28;20213;-77
2021/10/26 03:19:38;;;;;;;4.17;3.57;;;11.20;99.90;;;;;;5070868;28;20220;-77
2021/10/26 03:22:07;;;;;;;7.20;3.70;;;11.20;99.90;;;;;;5070725;28;20206;-76
2021/10/26 03:24:34;;;;;;;7.07;4.07;;;11.20;99.90;;;;;;5070702;28;20630;-77
2021/10/26 03:27:01;;;;;;;4.30;2.93;;;11.30;99.90;;;;;;5070577;28;20237;-82
2021/10/26 03:29:28;;;;;;;4.00;3.30;;;11.20;99.90;;;;;;5070926;28;20203;-83
2021/10/26 03:31:56;;;;;;;4.70;3.83;;;11.20;99.90;;;;;;5070476;28;20206;-82
2021/10/26 03:34:23;;;;;;;8.17;3.57;;;11.30;99.90;;;;;;5070636;28;20210;-80
2021/10/26 03:36:50;;;;;;;4.90;3.17;;;11.30;99.90;;;;;;5070952;28;20728;-76
2021/10/26 03:39:19;;;;;;;3.63;3.13;;;11.40;99.90;;;;;;5070950;28;20214;-82
2021/10/26 03:41:46;;;;;;;8.90;3.33;;;11.40;99.90;;;;;;5070710;28;20244;-76
2021/10/26 03:44:13;;;;;;;6.63;3.73;;;11.30;99.90;;;;;;5070424;28;20721;-83
2021/10/26 03:46:40;;;;;;;5.53;3.70;;;11.40;99.90;;;;;;5070842;28;20230;-77
2021/10/26 03:49:07;;;;;;;8.70;3.57;;;11.50;99.90;;;;;;5070112;28;20206;-81
2021/10/26 03:51:34;;;;;;;6.17;4.33;;;11.50;99.90;;;;;;5070670;28;20238;-81
2021/10/26 03:54:02;;;;;;;4.70;4.25;;;11.30;99.90;;;;;;5069855;28;20202;-75
2021/10/26 03:56:30;;;;;;;7.93;3.97;;;11.40;99.90;;;;;;5070744;28;20331;-81
2021/10/26 03:58:58;;;;;;;6.27;3.43;;;11.30;99.90;;;;;;5070073;28;20198;-81
2021/10/26 04:01:25;;;;;;;6.67;3.70;;;11.10;99.90;;;;;;5070582;28;20241;-81
2021/10/26 04:03:52;;;;;;;5.70;3.77;;;11.00;99.90;;;;;;5070062;28;20206;-77
2021/10/26 04:06:22;;;;;;;4.23;3.10;;;11.00;99.90;;;;;;5070664;28;20240;-78
2021/10/26 04:08:55;;;;;;;4.00;3.03;;;11.00;99.90;;;;;;5070343;28;20210;-78
2021/10/26 04:11:24;;;;;;;6.37;3.50;;;10.90;99.90;;;;;;5070298;28;20670;-78
2021/10/26 04:13:52;;;;;;;8.20;3.47;;;10.90;99.90;;;;;;5070624;28;20217;-77
2021/10/26 04:16:19;;;;;;;4.60;3.90;;;10.90;99.90;;;;;;5070438;28;20206;-77
2021/10/26 04:18:46;;;;;;;6.83;3.90;;;11.00;99.90;;;;;;5070792;28;20259;-78
2021/10/26 04:21:16;;;;;;;4.40;3.30;;;11.10;99.90;;;;;;5069967;28;20301;-76
2021/10/26 04:23:44;;;;;;;5.40;3.70;;;11.20;99.90;;;;;;5072399;28;20626;-76
2021/10/26 04:26:11;;;;;;;4.97;3.67;;;11.30;99.90;;;;;;5074196;28;20237;-79
2021/10/26 04:28:38;;;;;;;6.63;3.33;;;11.40;99.90;;;;;;5074458;28;20646;-75
2021/10/26 04:31:06;;;;;;;5.27;2.90;;;11.40;99.90;;;;;;5074772;28;20202;-76
2021/10/26 04:33:33;;;;;;;6.00;3.67;;;11.30;99.90;;;;;;5075687;28;20202;-79
2021/10/26 04:36:00;;;;;;;6.53;4.40;;;11.40;99.90;;;;;;5076312;28;20202;-78
2021/10/26 04:38:27;;;;;;;3.70;3.30;;;11.40;99.90;;;;;;5080089;28;20210;-79
2021/10/26 04:40:57;;;;;;;5.00;3.97;;;11.40;99.90;;;;;;5077509;28;20213;-76
2021/10/26 04:43:25;;;;;;;3.80;3.13;;;11.50;99.90;;;;;;5077811;28;20583;-75
2021/10/26 04:45:53;;;;;;;4.93;3.07;;;11.50;99.90;;;;;;5077000;28;20677;-76
2021/10/26 04:48:22;;;;;;;4.97;2.90;;;11.50;99.90;;;;;;5076115;28;20236;-75
2021/10/26 04:50:49;;;;;;;4.20;3.37;;;11.50;99.90;;;;;;5073881;28;20238;-76
2021/10/26 04:53:17;;;;;;;4.73;3.57;;;11.50;99.90;;;;;;5073897;28;20255;-76
2021/10/26 04:55:44;;;;;;;5.83;3.53;;;11.40;99.90;;;;;;5073526;28;20209;-79
2021/10/26 04:58:11;;;;;;;5.97;4.33;;;11.40;99.90;;;;;;5073738;28;20279;-78
2021/10/26 05:00:38;;;;;;;6.13;3.40;;;11.40;99.90;;;;;;5073800;28;20207;-77
2021/10/26 05:03:05;;;;;;;5.60;3.70;;;11.50;99.90;;;;;;5073119;28;20731;-78
2021/10/26 05:05:34;;;;;;;5.57;3.30;;;11.50;99.90;;;;;;5073541;28;20635;-78
2021/10/26 05:08:02;;;;;;;11.27;4.93;;;11.50;99.90;;;;;;5073069;28;20240;-79
2021/10/26 05:10:29;;;;;;;4.40;3.70;;;11.40;99.90;;;;;;5073647;28;20206;-81
2021/10/26 05:12:56;;;;;;;5.80;3.93;;;11.50;99.90;;;;;;5073545;28;20297;-77
2021/10/26 05:15:23;;;;;;;8.15;4.30;;;11.50;99.90;;;;;;5073659;28;20283;-77
2021/10/26 05:17:51;;;;;;;5.77;3.97;;;11.50;99.90;;;;;;5073070;28;20275;-77
2021/10/26 05:20:20;;;;;;;6.77;5.07;;;11.60;99.90;;;;;;5073710;28;20757;-83
2021/10/26 05:22:51;;;;;;;5.45;3.83;;;11.60;99.90;;;;;;5073502;28;20263;-80
2021/10/26 05:25:18;;;;;;;4.80;4.20;;;11.60;99.90;;;;;;5073778;28;20198;-78
2021/10/26 05:27:46;;;;;;;13.60;4.97;;;11.60;99.90;;;;;;5073532;28;20790;-76
2021/10/26 05:30:15;;;;;;;6.33;4.27;;;11.60;99.90;;;;;;5072750;28;20292;-79
2021/10/26 05:32:42;;;;;;;9.50;4.80;;;11.70;99.90;;;;;;5072891;28;20220;-77
2021/10/26 05:35:10;;;;;;;9.23;4.77;;;11.70;99.90;;;;;;5072349;28;20627;-76
2021/10/26 05:37:37;;;;;;;6.93;4.93;;;11.70;99.90;;;;;;5072924;28;20645;-79
2021/10/26 05:40:08;;;;;;;7.15;4.60;;;11.80;99.90;;;;;;5072630;28;20301;-76
2021/10/26 05:42:37;;;;;;;9.27;5.10;;;11.70;99.90;;;;;;5072839;28;20203;-76
2021/10/26 05:45:04;;;;;;;6.43;4.57;;;11.60;99.90;;;;;;5072362;28;20210;-80
2021/10/26 05:47:32;;;;;;;12.00;6.40;;;11.60;99.90;;;;;;5072830;28;20226;-77
2021/10/26 05:49:59;;;;;;;8.07;5.37;;;11.50;99.90;;;;;;5072308;28;20205;-80
2021/10/26 05:52:26;;;;;;;11.87;6.07;;;11.50;99.90;;;;;;5072415;28;20682;-77
2021/10/26 05:54:53;;;;;;;12.13;5.90;;;11.50;99.90;;;;;;5072756;28;20263;-76
2021/10/26 05:57:21;;;;;;;7.97;5.37;;;11.60;99.90;;;;;;5072737;28;20645;-76
2021/10/26 05:59:48;;;;;;;11.87;6.87;;;11.70;99.90;;;;;;5073014;28;20202;-80
2021/10/26 06:02:15;;;;;;;11.35;7.35;;;11.70;99.90;;;;;;5072268;28;20218;-77
2021/10/26 06:04:42;;;;;;;13.67;7.37;;;11.80;99.90;;;;;;5072610;28;20255;-77
2021/10/26 06:07:09;;;;;;;9.23;5.77;;;11.80;99.90;;;;;;5072089;28;20680;-77
2021/10/26 06:09:36;;;;;;;14.98;7.63;;;11.80;99.90;;;;;;5072594;28;20263;-76
2021/10/26 06:12:05;;;;;;;10.33;6.93;;;11.90;99.90;;;;;;5072352;28;20210;-76
2021/10/26 06:14:34;;;;;;;10.63;7.23;;;11.90;99.90;;;;;;5072103;28;20208;-77
2021/10/26 06:17:01;;;;;;;15.60;7.70;;;11.90;99.90;;;;;;5071713;28;20232;-82
2021/10/26 06:19:28;;;;;;;18.17;8.00;;;12.00;99.90;;;;;;5072152;28;20210;-78
2021/10/26 06:21:55;;;;;;;10.43;6.13;;;12.00;99.90;;;;;;5072072;28;20206;-82
2021/10/26 06:24:23;;;;;;;15.30;6.50;;;12.00;99.90;;;;;;5072393;28;20550;-80
2021/10/26 06:26:50;;;;;;;14.00;7.47;;;12.00;99.90;;;;;;5071842;28;20279;-80
2021/10/26 06:29:17;;;;;;;15.00;8.40;;;12.00;99.90;;;;;;5071920;28;20207;-78
2021/10/26 06:31:45;;;;;;;13.27;7.10;;;12.00;99.90;;;;;;5071743;28;20206;-78
2021/10/26 06:34:12;;;;;;;12.07;6.35;;;11.90;99.90;;;;;;5071866;28;20210;-78
2021/10/26 06:36:39;;;;;;;13.53;6.90;;;12.00;99.90;;;;;;5071893;28;20206;-77
2021/10/26 06:39:06;;;;;;;12.68;7.05;;;12.00;99.90;;;;;;5071324;28;20594;-75
2021/10/26 06:41:33;;;;;;;17.30;10.03;;;12.00;99.90;;;;;;5072035;28;20214;-78
2021/10/26 06:44:01;;;;;;;13.83;7.03;;;12.00;99.90;;;;;;5071421;28;20206;-78
2021/10/26 06:46:28;;;;;;;12.85;7.65;;;12.10;99.90;;;;;;5071428;28;20267;-78
2021/10/26 06:48:58;;;;;;;17.58;9.05;;;12.20;99.90;;;;;;5070979;28;20234;-74
2021/10/26 06:51:25;;;;;;;12.38;7.68;;;12.20;99.90;;;;;;5071906;28;20256;-75
2021/10/26 06:53:52;;;;;;;14.07;7.63;;;12.30;99.90;;;;;;5071164;28;20206;-74
2021/10/26 06:56:19;;;;;;;19.98;8.82;;;12.30;99.90;;;;;;5071657;28;20566;-72
2021/10/26 06:58:46;;;;;;;16.83;8.60;;;12.30;99.90;;;;;;5071400;28;20236;-77
2021/10/26 07:01:13;;;;;;;14.95;8.18;;;12.30;99.90;;;;;;5071159;28;20217;-77
2021/10/26 07:03:41;;;;;;;14.73;8.25;;;12.30;99.90;;;;;;5071636;28;20210;-76
2021/10/26 07:06:10;;;;;;;12.65;8.27;;;12.20;99.90;;;;;;5057208;28;20248;-76
2021/10/26 07:08:37;;;;;;;16.42;9.50;;;12.30;99.90;;;;;;5071427;28;20642;-74
2021/10/26 07:11:05;;;;;;;11.10;8.15;;;12.40;99.90;;;;;;5066576;28;20571;-74
2021/10/26 07:13:35;;;;;;;14.63;9.10;;;12.60;99.90;;;;;;5070821;28;20206;-75
2021/10/26 07:16:02;;;;;;;17.38;8.50;;;12.70;99.90;;;;;;5070324;28;20198;-75
2021/10/26 07:18:29;;;;;;;20.60;8.65;;;12.90;99.90;;;;;;5071281;28;20206;-76
2021/10/26 07:20:56;;;;;;;15.80;8.20;;;13.10;99.90;;;;;;5070699;28;20263;-74
2021/10/26 07:23:24;;;;;;;12.43;7.90;;;13.30;99.90;;;;;;5070902;28;20248;-75
2021/10/26 07:25:52;;;;;;;14.63;8.95;;;13.30;99.90;;;;;;5070928;28;20202;-76
2021/10/26 07:28:21;;;;;;;14.50;7.55;;;13.20;99.90;;;;;;5070919;28;20234;-74
2021/10/26 07:30:49;;;;;;;12.98;8.45;;;13.10;99.90;;;;;;5071413;28;20202;-74
2021/10/26 07:33:18;;;;;;;10.73;7.68;;;13.10;99.90;;;;;;5070588;28;20304;-75
2021/10/26 07:35:47;;;;;;;12.50;7.43;;;13.20;99.90;;;;;;5070994;28;20206;-78
2021/10/26 07:38:24;;;;;;;11.77;7.32;;;13.30;99.90;;;;;;5070261;28;20214;-78
2021/10/26 07:40:52;;;;;;;13.05;7.70;;;13.30;99.90;;;;;;5070837;28;20206;-73
2021/10/26 07:43:19;;;;;;;13.13;8.23;;;13.40;99.90;;;;;;5070410;28;20268;-75
2021/10/26 07:45:46;;;;;;;13.20;7.57;;;13.40;99.90;;;;;;5071227;28;20263;-78
2021/10/26 07:48:13;;;;;;;7.63;6.00;;;13.50;99.90;;;;;;5070244;28;20287;-75
2021/10/26 07:50:42;;;;;;;13.90;6.72;;;13.70;99.90;;;;;;5070215;28;20202;-74
2021/10/26 07:53:09;;;;;;;10.70;7.07;;;13.80;99.90;;;;;;5070491;28;20562;-75
2021/10/26 07:55:36;;;;;;;12.20;7.20;;;13.90;99.90;;;;;;5070295;28;20202;-76
2021/10/26 07:58:04;;;;;;;9.38;7.15;;;13.90;99.90;;;;;;5069278;28;20266;-74
2021/10/26 08:00:31;;;;;;;13.38;7.05;;;14.00;99.90;;;;;;5070471;28;20283;-75
2021/10/26 08:03:00;;;;;;;12.65;7.93;;;14.20;99.90;;;;;;5069935;28;20681;-75
2021/10/26 08:05:27;;;;;;;8.80;6.13;;;14.20;99.90;;;;;;5070337;28;20267;-75
2021/10/26 08:07:54;;;;;;;12.55;8.75;;;14.30;99.90;;;;;;5070112;28;20713;-75
2021/10/26 08:10:21;;;;;;;14.48;9.02;;;14.30;99.90;;;;;;5070154;28;20747;-75
2021/10/26 08:12:48;;;;;;;10.40;7.25;;;14.30;99.90;;;;;;5070309;28;20206;-75
2021/10/26 08:15:16;;;;;;;16.80;8.68;;;14.50;99.90;;;;;;5070245;28;20676;-74
2021/10/26 08:17:44;;;;;;;16.02;7.82;;;14.70;99.90;;;;;;5069985;28;20214;-74
2021/10/26 08:20:11;;;;;;;16.65;8.20;;;14.90;99.90;;;;;;5068476;28;20271;-74
2021/10/26 08:22:39;;;;;;;9.98;8.45;;;14.90;99.90;;;;;;5067088;28;20623;-75
2021/10/26 08:25:12;;;;;;;9.75;6.60;;;14.90;99.90;;;;;;5069468;28;20227;-74
2021/10/26 08:27:39;;;;;;;12.20;8.77;;;14.90;99.90;;;;;;5069677;28;20279;-74
2021/10/26 08:30:12;;;;;;;13.60;7.47;;;15.00;99.90;;;;;;5069751;28;20209;-74
2021/10/26 08:35:28;;;;;;;20.33;9.60;;;15.10;99.90;;;;;;5069478;28;20213;-73
2021/10/26 08:37:58;;;;;;;12.05;7.45;;;15.00;99.90;;;;;;5069621;28;20225;-75
2021/10/26 08:40:26;;;;;;;9.77;7.10;;;15.00;99.90;;;;;;5068934;28;20665;-74
2021/10/26 08:42:56;;;;;;;9.25;6.25;;;14.90;99.90;;;;;;5069566;28;20205;-76
2021/10/26 08:45:25;;;;;;;10.75;6.30;;;14.90;99.90;;;;;;5069722;28;20555;-74
2021/10/26 08:47:54;;;;;;;10.45;5.68;;;14.90;99.90;;;;;;5059309;28;20236;-74
2021/10/26 08:50:23;;;;;;;7.55;5.68;;;15.00;99.90;;;;;;5069900;28;20262;-75
2021/10/26 08:52:51;;;;;;;13.98;5.05;;;15.10;99.90;;;;;;5058548;28;20568;-75
2021/10/26 08:55:18;;;;;;;8.13;5.40;;;15.20;99.90;;;;;;5069653;28;20229;-75
2021/10/26 08:57:47;;;;;;;9.07;6.28;;;15.40;99.90;;;;;;5069873;28;20744;-75
2021/10/26 09:00:17;;;;;;;11.70;4.88;;;15.50;99.90;;;;;;5069773;28;20215;-74
2021/10/26 09:02:47;;;;;;;6.22;4.45;;;15.70;99.90;;;;;;5069015;28;20300;-77
2021/10/26 09:05:18;;;;;;;4.43;2.95;;;15.70;99.90;;;;;;5069116;28;20242;-77
2021/10/26 09:08:01;;;;;;;6.50;4.45;;;15.70;99.90;;;;;;5069011;28;20222;-74
2021/10/26 09:10:32;;;;;;;9.60;5.15;;;15.70;99.90;;;;;;5072664;28;20263;-79
2021/10/26 09:18:37;;;;;;;4.07;3.35;;;16.00;99.90;;;;;;5072985;28;20308;-79
2021/10/26 09:21:06;;;;;;;8.50;4.32;;;16.00;99.90;;;;;;5072737;28;20209;-75
2021/10/26 09:23:33;;;;;;;9.10;4.18;;;15.90;99.90;;;;;;5072691;28;20206;-74
2021/10/26 09:26:00;;;;;;;7.75;4.00;;;15.90;99.90;;;;;;5072873;28;20256;-74
2021/10/26 09:28:28;;;;;;;5.53;4.15;;;15.70;99.90;;;;;;5072883;28;20284;-77
2021/10/26 09:31:04;;;;;;;5.25;4.10;;;15.60;99.90;;;;;;5072892;28;20214;-76
2021/10/26 09:33:34;;;;;;;5.22;2.85;;;15.70;99.90;;;;;;5070288;28;20198;-79
2021/10/26 09:36:24;;;;;;;8.88;3.60;;;15.80;99.90;;;;;;5072518;28;20666;-77
2021/10/26 09:39:10;;;;;;;5.07;2.60;;;16.10;99.90;;;;;;5072201;28;20275;-74
2021/10/26 09:41:38;;;;;;;3.95;2.55;;;16.70;99.90;;;;;;5072683;28;20202;-74
2021/10/26 09:44:12;;;;;;;5.65;2.47;;;17.20;99.90;;;;;;5072618;28;20209;-75
2021/10/26 09:46:41;;;;;;;3.03;2.15;;;17.60;99.90;;;;;;5072630;28;20389;-79
2021/10/26 09:49:21;;;;;;;8.55;2.63;;;18.30;99.90;;;;;;5063671;28;20240;-78
2021/10/26 09:51:51;;;;;;;6.20;2.33;;;18.20;99.90;;;;;;5067148;28;20251;-76
2021/10/26 09:54:19;;;;;;;4.53;1.90;;;18.20;99.90;;;;;;5072744;28;20658;-75
2021/10/26 09:57:05;;;;;;;5.05;2.50;;;19.50;99.90;;;;;;5072826;28;20718;-74
2021/10/26 09:59:33;;;;;;;4.22;1.90;;;20.50;99.90;;;;;;5067732;28;20237;-78
2021/10/26 10:02:00;;;;;;;2.53;2.15;;;19.50;99.90;;;;;;5071774;28;20719;-79
2021/10/26 10:04:29;;;;;;;5.10;2.00;;;18.80;99.90;;;;;;5072228;28;20202;-75
2021/10/26 10:06:57;;;;;;;3.60;2.72;;;18.30;99.90;;;;;;5071976;28;20255;-75
2021/10/26 10:09:25;;;;;;;6.35;2.63;;;18.10;99.90;;;;;;5072159;28;20286;-76
2021/10/26 10:12:00;;;;;;;5.43;2.08;;;18.10;99.90;;;;;;5072225;28;20210;-75
2021/10/26 10:14:27;;;;;;;5.32;2.38;;;17.90;99.90;;;;;;5071751;28;20666;-77
2021/10/26 10:16:54;;;;;;;7.78;3.03;;;17.90;99.90;;;;;;5071723;28;20206;-78
2021/10/26 10:19:22;;;;;;;5.35;3.13;;;18.20;99.90;;;;;;5072385;28;20294;-78
2021/10/26 10:21:51;;;;;;;4.40;2.63;;;18.20;99.90;;;;;;5070272;28;20206;-74
2021/10/26 10:24:20;;;;;;;5.22;2.17;;;18.20;99.90;;;;;;5072323;28;20283;-75
2021/10/26 10:26:51;;;;;;;5.38;2.65;;;18.30;99.90;;;;;;5070578;28;20728;-75
2021/10/26 10:29:20;;;;;;;3.55;2.15;;;18.40;99.90;;;;;;5072248;28;20241;-75
2021/10/26 10:31:49;;;;;;;4.35;2.50;;;18.30;99.90;;;;;;5069637;28;20213;-76
2021/10/26 10:34:22;;;;;;;4.00;2.72;;;17.90;99.90;;;;;;5071717;28;20686;-75
2021/10/26 10:36:52;;;;;;;3.95;2.05;;;17.50;99.90;;;;;;5071824;28;20210;-74
2021/10/26 10:39:27;;;;;;;3.45;2.63;;;17.30;99.90;;;;;;5071679;28;20214;-75
2021/10/26 10:42:13;;;;;;;3.97;1.80;;;17.20;99.90;;;;;;5068360;28;20307;-74
2021/10/26 10:44:42;;;;;;;7.22;2.42;;;17.10;99.90;;;;;;5071828;28;20210;-75
2021/10/26 10:47:29;;;;;;;1.98;1.40;;;17.00;99.90;;;;;;5070613;28;20634;-75
2021/10/26 10:49:57;;;;;;;7.43;2.78;;;16.90;99.90;;;;;;5061760;28;20280;-75
2021/10/26 10:52:30;;;;;;;4.72;1.92;;;16.80;99.90;;;;;;5070536;28;20210;-75
2021/10/26 10:55:01;;;;;;;3.55;1.52;;;16.80;99.90;;;;;;5067790;28;20213;-75
2021/10/26 10:57:34;;;;;;;6.25;2.35;;;16.80;99.90;;;;;;5071293;28;20213;-75
2021/10/26 11:00:04;;;;;;;3.60;2.72;;;17.00;99.90;;;;;;5071205;28;20297;-76
2021/10/26 11:02:36;;;;;;;2.28;2.08;;;17.10;99.90;;;;;;5070813;28;20289;-75
2021/10/26 11:05:05;;;;;;;1.90;1.50;;;17.00;99.90;;;;;;5070530;28;20693;-75
2021/10/26 11:07:52;;;;;;;2.47;1.63;;;17.30;99.90;;;;;;5069500;28;20203;-75
2021/10/26 11:10:21;;;;;;;5.57;2.13;;;17.50;99.90;;;;;;5071184;28;20654;-75
2021/10/26 11:12:48;;;;;;;4.97;2.13;;;18.00;99.90;;;;;;5071332;28;20213;-75
2021/10/26 11:15:21;;;;;;;3.90;2.45;;;18.40;99.90;;;;;;5071275;28;20263;-76
2021/10/26 11:17:54;;;;;;;4.40;1.65;;;19.10;99.90;;;;;;5071132;28;20209;-75
2021/10/26 11:20:41;;;;;;;5.13;2.15;;;19.30;99.90;;;;;;5071080;28;20306;-75
2021/10/26 11:23:10;;;;;;;2.47;1.70;;;19.60;99.90;;;;;;5070350;28;20268;-75
2021/10/26 11:25:42;;;;;;;3.20;1.90;;;19.60;99.90;;;;;;5070909;28;20701;-76
2021/10/26 11:28:37;;;;;;;5.65;1.77;;;19.20;99.90;;;;;;5070350;28;20737;-76
2021/10/26 11:31:07;;;;;;;2.45;1.63;;;19.30;99.90;;;;;;5061567;28;20259;-78
2021/10/26 11:33:37;;;;;;;3.78;1.60;;;19.40;99.90;;;;;;5070335;28;20206;-76
2021/10/26 11:36:06;;;;;;;1.77;1.45;;;19.30;99.90;;;;;;5070396;28;20248;-79
2021/10/26 11:38:37;;;;;;;1.73;1.38;;;19.10;99.90;;;;;;5070381;28;20229;-76
2021/10/26 11:41:08;;;;;;;2.63;1.83;;;18.70;99.90;;;;;;5070328;28;20214;-78
2021/10/26 11:43:41;;;;;;;5.13;2.17;;;18.80;99.90;;;;;;5068961;28;20205;-76
2021/10/26 11:46:10;;;;;;;2.20;1.55;;;18.70;99.90;;;;;;5070393;28;20210;-77
2021/10/26 11:48:46;;;;;;;3.72;1.38;;;18.40;99.90;;;;;;5069866;28;20279;-77
2021/10/26 11:51:21;;;;;;;2.28;1.80;;;18.30;99.90;;;;;;5070174;28;20213;-77
2021/10/26 11:53:50;;;;;;;3.15;2.20;;;18.30;99.90;;;;;;5067440;28;20270;-76
2021/10/26 11:56:28;;;;;;;3.40;1.35;;;18.10;99.90;;;;;;5070993;28;20217;-73
2021/10/26 11:59:17;;;;;;;2.15;1.38;;;17.90;99.90;;;;;;5069968;28;20225;-75
2021/10/26 12:01:48;;;;;;;4.05;1.73;;;17.50;99.90;;;;;;5068744;28;20263;-75
2021/10/26 12:04:18;;;;;;;6.18;1.88;;;17.20;99.90;;;;;;5068813;28;20234;-75
2021/10/26 12:06:46;;;;;;;4.65;2.08;;;17.00;99.90;;;;;;5070115;28;20292;-74
2021/10/26 12:09:15;;;;;;;4.65;2.28;;;17.00;99.90;;;;;;5069593;28;20279;-73
2021/10/26 12:11:46;;;;;;;4.22;2.08;;;16.90;99.90;;;;;;5069929;28;20591;-74
2021/10/26 12:14:28;;;;;;;5.28;2.78;;;16.70;99.90;;;;;;5069925;28;20210;-74
2021/10/26 12:17:17;;;;;;;5.05;1.90;;;17.00;99.90;;;;;;5069533;28;20235;-74
2021/10/26 12:19:49;;;;;;;3.47;1.52;;;17.40;99.90;;;;;;5070405;28;20202;-75
2021/10/26 12:22:18;;;;;;;2.53;1.75;;;17.70;99.90;;;;;;5070156;28;20222;-74
2021/10/26 12:24:50;;;;;;;3.97;1.80;;;18.00;99.90;;;;;;5070354;28;20206;-74
2021/10/26 12:27:26;;;;;;;2.03;1.58;;;18.20;99.90;;;;;;5070343;28;20256;-74
2021/10/26 12:29:54;;;;;;;3.20;1.73;;;18.40;99.90;;;;;;5069293;28;20259;-72
2021/10/26 12:32:22;;;;;;;1.90;1.20;;;18.40;99.90;;;;;;5070165;28;20255;-74
2021/10/26 12:34:49;;;;;;;2.78;1.70;;;18.20;99.90;;;;;;5069900;28;20209;-73
2021/10/26 12:37:19;;;;;;;3.75;1.38;;;18.40;99.90;;;;;;5069335;28;20198;-74
2021/10/26 12:39:51;;;;;;;3.35;2.03;;;18.40;99.90;;;;;;5070219;28;20331;-73
2021/10/26 12:42:30;;;;;;;3.22;1.58;;;18.20;99.90;;;;;;5061060;28;20640;-72
2021/10/26 12:44:57;;;;;;;3.45;1.27;;;18.20;99.90;;;;;;5071841;28;20202;-73
2021/10/26 12:47:28;;;;;;;3.20;1.88;;;18.40;99.90;;;;;;5065287;28;20206;-74
2021/10/26 12:49:55;;;;;;;6.07;2.10;;;18.70;99.90;;;;;;5073524;28;20298;-73
2021/10/26 12:52:23;;;;;;;3.00;2.22;;;19.10;99.90;;;;;;5073538;28;20285;-73
2021/10/26 12:54:50;;;;;;;4.03;1.52;;;19.30;99.90;;;;;;5072984;28;20700;-76
2021/10/26 12:57:36;;;;;;;7.60;2.08;;;19.40;99.90;;;;;;5073792;28;20198;-73
2021/10/26 13:00:23;;;;;;;5.18;2.28;;;19.50;99.90;;;;;;5069563;28;20233;-73
2021/10/26 13:02:50;;;;;;;15.38;2.00;;;19.40;99.90;;;;;;5068567;28;20293;-73